Time;durP1;ratioP1;P1;durP2;ratioP2;P2;SDS_P1;SDS_P2;PMS_P1;PMS_P2;Temp;Humidity;BMP_temperature;BMP_pressure;BME280_temperature;BME280_humidity;BME280_pressure;Samples;Min_cycle;Max_cycle;Signal;HPM_P1;HPM_P2
2022/10/04 00:00:37;;;;;;;18.07;8.57;;;;;9.90;101843.00;;;;13086316;22;20183;-74
2022/10/04 00:05:40;;;;;;;9.40;7.33;;;;;9.80;101841.00;;;;13042748;22;20224;-73
2022/10/04 00:10:41;;;;;;;13.17;7.67;;;;;9.70;101837.00;;;;13088950;22;20191;-73
2022/10/04 00:15:48;;;;;;;11.47;8.00;;;;;9.60;101836.00;;;;13090707;22;20468;-73
2022/10/04 00:20:49;;;;;;;12.97;7.87;;;;;9.50;101824.00;;;;13089820;22;20187;-73
2022/10/04 00:26:02;;;;;;;13.83;8.87;;;;;9.40;101824.00;;;;13042304;22;20691;-74
2022/10/04 00:31:11;;;;;;;16.97;10.23;;;;;9.40;101809.00;;;;13042366;22;20611;-73
2022/10/04 00:36:22;;;;;;;14.90;9.33;;;;;9.40;101804.00;;;;13090746;22;20164;-73
2022/10/04 00:41:25;;;;;;;19.00;10.83;;;;;9.30;101801.00;;;;13088440;22;20274;-74
2022/10/04 00:46:29;;;;;;;20.27;11.80;;;;;9.30;101793.00;;;;13042541;22;20674;-74
2022/10/04 00:51:39;;;;;;;24.57;13.60;;;;;9.30;101791.00;;;;13017542;22;20737;-74
2022/10/04 00:56:51;;;;;;;20.17;12.60;;;;;9.30;101794.00;;;;13068047;22;20222;-74
2022/10/04 01:02:21;;;;;;;18.30;11.77;;;;;9.20;101778.00;;;;13089381;22;20274;-73
2022/10/04 01:07:32;;;;;;;20.30;11.17;;;;;9.20;101780.00;;;;13089106;22;20792;-74
2022/10/04 01:12:36;;;;;;;20.53;11.30;;;;;9.20;101763.00;;;;13062467;22;20175;-74
2022/10/04 01:17:37;;;;;;;20.87;10.90;;;;;9.10;101769.00;;;;13041563;22;20174;-74
2022/10/04 01:22:42;;;;;;;16.37;11.77;;;;;9.10;101765.00;;;;12990538;22;20195;-74
2022/10/04 01:27:44;;;;;;;21.87;10.00;;;;;9.00;101764.00;;;;13065282;22;20629;-74
2022/10/04 01:32:45;;;;;;;17.43;10.23;;;;;8.90;101753.00;;;;13016031;22;20258;-74
2022/10/04 01:37:46;;;;;;;20.93;10.67;;;;;8.90;101749.00;;;;13042018;22;20224;-74
2022/10/04 01:42:53;;;;;;;22.30;11.73;;;;;8.90;101738.00;;;;13037721;22;20625;-74
2022/10/04 01:47:59;;;;;;;21.07;11.47;;;;;8.90;101740.00;;;;13088134;22;20224;-74
2022/10/04 01:53:18;;;;;;;18.13;10.93;;;;;8.80;101735.00;;;;13088224;22;20229;-73
2022/10/04 01:58:26;;;;;;;16.77;10.10;;;;;8.70;101730.00;;;;13040608;22;20716;-74
2022/10/04 02:03:27;;;;;;;21.83;10.33;;;;;8.70;101731.00;;;;13062255;22;20183;-74
2022/10/04 02:08:32;;;;;;;18.97;11.60;;;;;8.60;101725.00;;;;13041251;22;20178;-74
2022/10/04 02:13:38;;;;;;;16.40;10.43;;;;;8.50;101709.00;;;;13087752;22;20229;-74
2022/10/04 02:18:42;;;;;;;18.00;10.77;;;;;8.50;101706.00;;;;13067033;22;20779;-74
2022/10/04 02:23:45;;;;;;;18.03;11.17;;;;;8.40;101707.00;;;;13018229;22;20518;-74
2022/10/04 02:28:47;;;;;;;20.73;11.30;;;;;8.40;101696.00;;;;13045058;22;20167;-74
2022/10/04 02:33:51;;;;;;;18.13;11.10;;;;;8.40;101683.00;;;;13017728;22;20182;-74
2022/10/04 02:39:02;;;;;;;16.33;10.20;;;;;8.40;101681.00;;;;13117607;22;20366;-74
2022/10/04 02:44:34;;;;;;;17.20;11.53;;;;;8.30;101682.00;;;;13064952;22;20190;-74
2022/10/04 02:49:40;;;;;;;19.77;11.07;;;;;8.20;101667.00;;;;13039253;22;20171;-74
2022/10/04 02:54:48;;;;;;;22.63;12.63;;;;;8.20;101662.00;;;;13063822;22;20168;-74
2022/10/04 03:00:00;;;;;;;17.77;13.30;;;;;8.20;101660.00;;;;13041569;22;20639;-74
2022/10/04 03:05:09;;;;;;;21.93;13.27;;;;;8.20;101651.00;;;;13090986;22;20163;-74
2022/10/04 03:10:12;;;;;;;18.37;12.97;;;;;8.20;101645.00;;;;13089756;22;20183;-73
2022/10/04 03:15:13;;;;;;;23.00;14.33;;;;;8.20;101634.00;;;;13064062;22;20160;-74
2022/10/04 03:20:20;;;;;;;24.53;15.43;;;;;8.20;101626.00;;;;13043621;22;20595;-74
2022/10/04 03:25:27;;;;;;;27.03;13.67;;;;;8.20;101619.00;;;;12992839;22;20503;-74
2022/10/04 03:30:30;;;;;;;22.77;14.20;;;;;8.20;101609.00;;;;13043066;22;20171;-74
2022/10/04 03:35:38;;;;;;;25.03;16.37;;;;;8.20;101600.00;;;;13067915;22;20180;-74
2022/10/04 03:40:45;;;;;;;23.17;14.57;;;;;8.30;101577.00;;;;13042130;22;20191;-73
2022/10/04 03:45:47;;;;;;;26.33;15.10;;;;;8.30;101587.00;;;;13089800;22;20191;-73
2022/10/04 03:50:49;;;;;;;23.83;14.10;;;;;8.40;101581.00;;;;13042839;22;20722;-73
2022/10/04 03:55:51;;;;;;;24.53;14.53;;;;;8.40;101576.00;;;;13017200;22;20168;-73
2022/10/04 04:01:05;;;;;;;24.13;14.43;;;;;8.50;101581.00;;;;13069055;22;20222;-73
2022/10/04 04:06:13;;;;;;;22.87;13.33;;;;;8.50;101579.00;;;;13088945;22;20178;-73
2022/10/04 04:11:25;;;;;;;25.67;14.10;;;;;8.50;101579.00;;;;13038875;22;20186;-74
2022/10/04 04:16:27;;;;;;;24.77;13.57;;;;;8.50;101579.00;;;;13017651;22;20287;-74
2022/10/04 04:21:29;;;;;;;22.23;14.10;;;;;8.50;101586.00;;;;13117009;22;20183;-73
2022/10/04 04:26:48;;;;;;;18.03;12.33;;;;;8.40;101581.00;;;;13090297;22;20189;-73
2022/10/04 04:31:57;;;;;;;19.00;11.80;;;;;8.30;101582.00;;;;13064314;22;20166;-73
2022/10/04 04:37:01;;;;;;;21.07;11.97;;;;;8.20;101578.00;;;;13089303;22;20170;-73
2022/10/04 04:42:30;;;;;;;19.70;12.27;;;;;8.10;101581.00;;;;13089880;22;20191;-73
2022/10/04 04:47:40;;;;;;;18.90;11.80;;;;;8.00;101568.00;;;;13089665;22;20179;-73
2022/10/04 04:53:19;;;;;;;20.13;13.37;;;;;8.10;101557.00;;;;13069104;22;20174;-73
2022/10/04 04:58:28;;;;;;;21.77;12.23;;;;;8.20;101542.00;;;;13064713;22;20595;-73
2022/10/04 05:03:30;;;;;;;22.27;11.97;;;;;8.20;101529.00;;;;13068815;22;20662;-73
2022/10/04 05:08:32;;;;;;;19.00;12.40;;;;;8.30;101513.00;;;;13043992;22;20632;-73
2022/10/04 05:13:46;;;;;;;25.77;11.90;;;;;8.30;101526.00;;;;13042285;22;20606;-73
2022/10/04 05:18:56;;;;;;;28.10;12.57;;;;;8.30;101533.00;;;;13042750;22;20175;-73
2022/10/04 05:24:07;;;;;;;22.83;11.90;;;;;8.30;101541.00;;;;13114312;22;20192;-73
2022/10/04 05:29:17;;;;;;;24.57;11.53;;;;;8.30;101539.00;;;;13066887;22;20185;-73
2022/10/04 05:34:27;;;;;;;21.50;10.53;;;;;8.20;101540.00;;;;13041268;22;20462;-73
2022/10/04 05:40:12;;;;;;;20.43;9.70;;;;;8.20;101536.00;;;;13033679;22;20171;-73
2022/10/04 05:45:26;;;;;;;14.00;9.13;;;;;8.10;101534.00;;;;12911175;22;20484;-73
2022/10/04 05:50:41;;;;;;;16.73;9.47;;;;;8.10;101543.00;;;;13063326;22;20630;-73
2022/10/04 05:56:00;;;;;;;20.87;8.83;;;;;8.00;101542.00;;;;13016623;22;20228;-73
2022/10/04 06:01:20;;;;;;;15.67;9.43;;;;;7.90;101558.00;;;;13089390;22;20187;-73
2022/10/04 06:06:34;;;;;;;18.23;10.27;;;;;7.90;101570.00;;;;13043548;22;20171;-73
2022/10/04 06:11:47;;;;;;;32.67;11.67;;;;;7.80;101558.00;;;;13044017;22;20530;-73
2022/10/04 06:16:54;;;;;;;225.43;35.93;;;;;7.80;101569.00;;;;13041416;22;20296;-73
2022/10/04 06:22:14;;;;;;;162.67;27.20;;;;;7.90;101561.00;;;;13065980;22;20685;-73
2022/10/04 06:27:47;;;;;;;17.57;9.50;;;;;8.10;101547.00;;;;13017135;22;20194;-73
2022/10/04 06:33:04;;;;;;;17.37;9.13;;;;;8.40;101544.00;;;;13041634;22;20163;-73
2022/10/04 06:38:21;;;;;;;20.57;9.37;;;;;8.60;101562.00;;;;13015697;22;20186;-73
2022/10/04 06:43:44;;;;;;;20.53;10.17;;;;;8.90;101556.00;;;;13089271;22;20183;-73
2022/10/04 06:49:04;;;;;;;14.97;8.20;;;;;8.80;101555.00;;;;13084254;22;20224;-73
2022/10/04 06:54:31;;;;;;;18.70;9.17;;;;;8.80;101552.00;;;;13065985;22;20250;-73
2022/10/04 06:59:43;;;;;;;21.57;11.13;;;;;8.90;101556.00;;;;13023672;22;20187;-73
2022/10/04 07:05:07;;;;;;;26.03;10.33;;;;;9.00;101550.00;;;;13038873;22;20179;-73
2022/10/04 07:10:31;;;;;;;25.43;10.57;;;;;9.50;101571.00;;;;13088079;22;20279;-73
2022/10/04 07:16:04;;;;;;;280.53;37.57;;;;;9.80;101550.00;;;;13114520;22;20171;-73
2022/10/04 07:21:14;;;;;;;106.80;18.03;;;;;10.10;101549.00;;;;13065998;22;20195;-73
2022/10/04 07:26:24;;;;;;;29.67;10.87;;;;;10.40;101561.00;;;;13016195;22;20502;-73
2022/10/04 07:31:29;;;;;;;15.53;8.53;;;;;10.70;101560.00;;;;13058264;22;20171;-73
2022/10/04 07:36:42;;;;;;;17.87;8.77;;;;;11.10;101547.00;;;;13013896;22;20168;-73
2022/10/04 07:41:54;;;;;;;20.47;8.43;;;;;11.30;101550.00;;;;13062195;22;20649;-73
2022/10/04 07:47:26;;;;;;;18.03;8.87;;;;;11.70;101537.00;;;;13067194;22;20553;-73
2022/10/04 07:52:33;;;;;;;26.30;8.33;;;;;12.00;101524.00;;;;13066309;22;20176;-73
2022/10/04 07:57:53;;;;;;;15.67;7.73;;;;;12.50;101532.00;;;;13061836;22;20159;-73
2022/10/04 08:03:03;;;;;;;13.30;7.03;;;;;12.90;101553.00;;;;13054181;22;20514;-73
2022/10/04 08:08:30;;;;;;;12.77;7.30;;;;;13.20;101549.00;;;;13014638;22;20174;-74
2022/10/04 08:13:35;;;;;;;12.47;7.23;;;;;13.50;101537.00;;;;13087835;22;20163;-74
2022/10/04 08:18:59;;;;;;;10.10;6.87;;;;;14.10;101545.00;;;;13011666;22;20167;-74
2022/10/04 08:24:10;;;;;;;8.53;6.87;;;;;14.80;101549.00;;;;13014523;22;20666;-75
2022/10/04 08:29:41;;;;;;;12.25;6.35;;;;;14.80;101555.00;;;;13061202;22;20512;-75
2022/10/04 08:35:01;;;;;;;21.15;7.75;;;;;15.00;101547.00;;;;13063501;22;20668;-75
2022/10/04 08:40:22;;;;;;;11.80;5.60;;;;;15.10;101552.00;;;;13059535;22;20179;-75
2022/10/04 08:45:55;;;;;;;11.68;5.53;;;;;15.60;101553.00;;;;12989724;22;20757;-75
2022/10/04 08:51:21;;;;;;;12.25;4.97;;;;;16.30;101545.00;;;;13084081;22;20179;-74
2022/10/04 08:56:44;;;;;;;13.80;5.32;;;;;16.80;101537.00;;;;13039534;22;20228;-75
2022/10/04 09:02:11;;;;;;;9.02;4.55;;;;;16.60;101538.00;;;;13059393;22;20327;-75
2022/10/04 09:07:15;;;;;;;8.77;4.65;;;;;16.60;101555.00;;;;13079678;22;20175;-74
2022/10/04 09:12:27;;;;;;;9.50;5.07;;;;;16.50;101564.00;;;;13011162;22;20201;-75
2022/10/04 09:17:53;;;;;;;7.90;4.18;;;;;16.80;101551.00;;;;13037005;22;20228;-74
2022/10/04 09:23:22;;;;;;;13.00;5.72;;;;;17.10;101544.00;;;;13060546;22;20182;-75
2022/10/04 09:28:55;;;;;;;9.40;4.82;;;;;17.60;101548.00;;;;13058851;22;20176;-74
2022/10/04 09:34:05;;;;;;;8.52;4.38;;;;;17.80;101551.00;;;;13039715;22;20171;-74
2022/10/04 09:39:37;;;;;;;10.00;4.97;;;;;18.00;101563.00;;;;13086919;22;20213;-74
2022/10/04 09:45:06;;;;;;;8.82;3.67;;;;;18.20;101549.00;;;;13036813;22;20195;-74
2022/10/04 09:50:38;;;;;;;8.18;4.50;;;;;18.40;101555.00;;;;13035198;22;20190;-74
2022/10/04 09:55:47;;;;;;;9.88;4.88;;;;;18.50;101553.00;;;;13085345;22;20191;-74
2022/10/04 10:01:07;;;;;;;8.18;4.10;;;;;18.70;101551.00;;;;13034311;22;20191;-74
2022/10/04 10:06:28;;;;;;;9.38;3.75;;;;;19.20;101554.00;;;;13037063;22;20171;-74
2022/10/04 10:17:22;;;;;;;9.60;4.50;;;;;20.80;101556.00;;;;13112072;22;20168;-75
2022/10/04 10:22:55;;;;;;;7.90;3.58;;;;;20.90;101552.00;;;;13084255;22;20569;-72
2022/10/04 10:28:24;;;;;;;6.70;3.63;;;;;20.70;101548.00;;;;13029726;22;20179;-74
2022/10/04 10:33:41;;;;;;;10.05;4.63;;;;;21.40;101548.00;;;;13062162;22;20171;-74
2022/10/04 10:39:01;;;;;;;5.32;3.88;;;;;21.90;101545.00;;;;13058485;22;20175;-74
2022/10/04 10:44:02;;;;;;;12.07;3.83;;;;;22.10;101543.00;;;;13008604;22;20195;-74
2022/10/04 10:49:34;;;;;;;19.42;4.53;;;;;21.60;101548.00;;;;13060891;22;20159;-73
2022/10/04 10:55:25;;;;;;;9.25;3.83;;;;;21.90;101540.00;;;;13060246;22;20538;-74
2022/10/04 11:00:50;;;;;;;6.85;2.95;;;;;22.30;101540.00;;;;12788615;23;20643;-74
2022/10/04 11:06:10;;;;;;;6.93;2.78;;;;;22.60;101528.00;;;;13075391;22;20336;-75
2022/10/04 11:11:49;;;;;;;4.47;3.22;;;;;22.80;101531.00;;;;13036635;22;20248;-74
2022/10/04 11:17:29;;;;;;;6.70;3.80;;;;;22.60;101507.00;;;;13113509;22;20598;-75
2022/10/04 11:22:43;;;;;;;7.60;3.30;;;;;22.70;101507.00;;;;13055904;22;20241;-74
2022/10/04 11:28:16;;;;;;;7.05;3.03;;;;;22.50;101512.00;;;;13013340;22;20379;-74
2022/10/04 11:33:41;;;;;;;7.88;3.42;;;;;22.10;101514.00;;;;13053653;22;20250;-74
2022/10/04 11:38:48;;;;;;;66.95;10.75;;;;;21.90;101497.00;;;;12987974;22;20249;-74
2022/10/04 11:44:29;;;;;;;6.80;3.13;;;;;22.70;101494.00;;;;13083494;22;20639;-74
2022/10/04 11:49:43;;;;;;;6.13;3.05;;;;;23.20;101486.00;;;;12988203;22;20179;-72
2022/10/04 11:54:46;;;;;;;5.97;2.85;;;;;23.60;101496.00;;;;13113354;22;20198;-74
2022/10/04 12:00:11;;;;;;;7.07;2.30;;;;;22.90;101501.00;;;;13012139;22;20183;-74
2022/10/04 12:05:36;;;;;;;5.60;2.90;;;;;23.40;101502.00;;;;13083432;22;20163;-72
2022/10/04 12:10:40;;;;;;;4.05;2.45;;;;;23.60;101497.00;;;;13060376;22;20183;-74
2022/10/04 12:15:48;;;;;;;5.30;2.67;;;;;23.70;101500.00;;;;13008395;22;20761;-74
2022/10/04 12:20:58;;;;;;;5.57;3.03;;;;;23.40;101495.00;;;;13039413;22;20191;-73
2022/10/04 12:26:37;;;;;;;6.82;2.60;;;;;23.30;101488.00;;;;13086444;22;20167;-72
2022/10/04 12:31:54;;;;;;;6.35;2.75;;;;;23.60;101476.00;;;;13086297;22;20274;-73
2022/10/04 12:37:19;;;;;;;7.78;2.63;;;;;23.60;101480.00;;;;13065045;22;20530;-72
2022/10/04 12:43:08;;;;;;;4.43;2.53;;;;;23.60;101472.00;;;;13085755;22;20523;-72
2022/10/04 12:48:21;;;;;;;4.60;2.92;;;;;23.50;101467.00;;;;12967745;22;20696;-72
2022/10/04 12:53:51;;;;;;;4.72;2.80;;;;;23.40;101470.00;;;;13034356;22;20168;-74
2022/10/04 12:59:36;;;;;;;11.02;2.85;;;;;23.40;101466.00;;;;13086248;22;20163;-72
2022/10/04 13:04:46;;;;;;;7.65;3.03;;;;;23.20;101451.00;;;;13031266;22;20195;-74
2022/10/04 13:10:17;;;;;;;4.78;2.92;;;;;22.90;101438.00;;;;13083723;22;20213;-74
2022/10/04 13:15:35;;;;;;;5.65;2.67;;;;;22.90;101428.00;;;;13038585;22;20252;-74
2022/10/04 13:21:06;;;;;;;6.72;3.17;;;;;22.60;101418.00;;;;13064579;22;20827;-74
2022/10/04 13:26:22;;;;;;;6.70;3.53;;;;;22.10;101430.00;;;;13060762;22;20199;-74
2022/10/04 13:31:33;;;;;;;5.10;3.03;;;;;21.60;101442.00;;;;13085445;22;20162;-74
2022/10/04 13:37:10;;;;;;;9.52;3.15;;;;;21.40;101432.00;;;;13061587;22;20167;-73
2022/10/04 13:42:36;;;;;;;5.90;3.15;;;;;23.40;101425.00;;;;13086013;22;20626;-73
2022/10/04 13:47:44;;;;;;;8.68;3.30;;;;;25.80;101421.00;;;;13011966;22;20167;-74
2022/10/04 13:58:51;;;;;;;4.45;2.92;;;;;24.90;101408.00;;;;13011711;22;20202;-74
2022/10/04 14:04:11;;;;;;;6.32;3.28;;;;;22.50;101401.00;;;;13037912;22;20229;-73
2022/10/04 14:09:21;;;;;;;5.13;2.47;;;;;21.30;101395.00;;;;13085160;22;20209;-73
2022/10/04 14:14:42;;;;;;;7.63;3.03;;;;;20.90;101383.00;;;;13036102;22;20832;-73
2022/10/04 14:20:14;;;;;;;11.43;3.38;;;;;20.20;101374.00;;;;13062758;22;20160;-73
2022/10/04 14:25:33;;;;;;;9.52;2.83;;;;;20.20;101367.00;;;;13066529;22;20168;-73
2022/10/04 14:31:06;;;;;;;5.72;3.10;;;;;20.40;101363.00;;;;13039137;22;20183;-73
2022/10/04 14:36:29;;;;;;;5.80;2.70;;;;;20.20;101335.00;;;;13064739;22;20242;-73
2022/10/04 14:41:37;;;;;;;6.00;3.10;;;;;20.60;101336.00;;;;13085608;22;20218;-73
2022/10/04 14:47:10;;;;;;;7.00;3.60;;;;;20.40;101342.00;;;;13086763;22;20332;-73
2022/10/04 14:52:33;;;;;;;5.75;3.20;;;;;19.60;101347.00;;;;13061078;22;20168;-74
2022/10/04 14:57:58;;;;;;;4.80;3.28;;;;;19.20;101358.00;;;;13040587;22;20226;-73
2022/10/04 15:03:02;;;;;;;6.18;2.83;;;;;18.90;101364.00;;;;13039149;22;20765;-73
2022/10/04 15:08:24;;;;;;;5.00;2.97;;;;;18.90;101364.00;;;;13060930;22;20163;-73
2022/10/04 15:13:55;;;;;;;4.55;2.50;;;;;18.90;101360.00;;;;13040976;22;20187;-73
2022/10/04 15:19:10;;;;;;;4.22;2.75;;;;;18.90;101360.00;;;;13059899;22;20167;-73
2022/10/04 15:24:17;;;;;;;5.00;3.08;;;;;18.80;101366.00;;;;13040942;22;20225;-74
2022/10/04 15:29:37;;;;;;;7.38;3.10;;;;;18.70;101367.00;;;;13061169;22;20216;-73
2022/10/04 15:34:58;;;;;;;5.38;3.15;;;;;18.70;101371.00;;;;13031500;22;20182;-73
2022/10/04 15:40:28;;;;;;;8.90;3.40;;;;;18.60;101356.00;;;;13084700;22;20159;-73
2022/10/04 15:45:46;;;;;;;5.28;3.00;;;;;18.50;101351.00;;;;13013218;22;20164;-74
2022/10/04 15:50:56;;;;;;;4.95;3.25;;;;;18.30;101357.00;;;;13015543;22;20267;-74
2022/10/04 15:56:20;;;;;;;5.47;2.90;;;;;18.20;101355.00;;;;13087018;22;20201;-74
2022/10/04 16:01:45;;;;;;;7.07;3.58;;;;;18.10;101339.00;;;;13062644;22;20180;-74
2022/10/04 16:06:59;;;;;;;4.88;3.35;;;;;17.90;101364.00;;;;13116018;22;20355;-74
2022/10/04 16:12:21;;;;;;;5.97;3.15;;;;;17.70;101357.00;;;;13089913;22;20183;-74
2022/10/04 16:18:01;;;;;;;8.00;3.63;;;;;17.60;101348.00;;;;13038483;22;20239;-74
2022/10/04 16:23:42;;;;;;;4.70;2.97;;;;;17.40;101347.00;;;;13088238;22;20183;-74
2022/10/04 16:29:06;;;;;;;3.90;2.63;;;;;17.10;101345.00;;;;12854424;22;20178;-74
2022/10/04 16:34:37;;;;;;;3.47;3.10;;;;;16.90;101368.00;;;;13034300;22;20179;-74
2022/10/04 16:39:59;;;;;;;3.80;3.33;;;;;16.70;101377.00;;;;13040551;22;20183;-74
2022/10/04 16:45:33;;;;;;;7.85;3.30;;;;;16.40;101389.00;;;;13015632;22;20202;-74
2022/10/04 16:50:57;;;;;;;5.03;3.20;;;;;16.20;101400.00;;;;13015766;22;20237;-74
2022/10/04 16:56:22;;;;;;;7.35;4.07;;;;;16.00;101405.00;;;;13042242;22;20172;-74
2022/10/04 17:01:27;;;;;;;7.50;4.30;;;;;15.80;101402.00;;;;13089000;22;20183;-74
2022/10/04 17:06:41;;;;;;;9.63;4.10;;;;;15.60;101421.00;;;;13042453;22;20172;-74
2022/10/04 17:12:01;;;;;;;9.05;4.47;;;;;15.30;101402.00;;;;13062673;22;20672;-74
2022/10/04 17:17:30;;;;;;;7.65;5.00;;;;;15.20;101404.00;;;;13062889;22;20159;-74
2022/10/04 17:23:06;;;;;;;6.22;4.00;;;;;15.10;101393.00;;;;13041257;22;20292;-74
2022/10/04 17:28:19;;;;;;;8.50;4.20;;;;;15.00;101407.00;;;;13015556;22;20174;-73
2022/10/04 17:33:31;;;;;;;7.63;4.38;;;;;14.90;101420.00;;;;13016058;22;20176;-73
2022/10/04 17:38:35;;;;;;;7.13;4.10;;;;;14.70;101428.00;;;;13041202;22;20551;-74
2022/10/04 17:43:45;;;;;;;6.43;4.97;;;;;14.70;101420.00;;;;13039767;22;20228;-73
2022/10/04 18:00:18;;;;;;;10.40;5.50;;;;;14.60;101435.00;;;;13091253;22;20300;-73
2022/10/04 18:05:25;;;;;;;8.73;5.47;;;;;14.60;101423.00;;;;13089754;22;20186;-73
2022/10/04 18:10:32;;;;;;;8.48;5.15;;;;;14.50;101431.00;;;;13065666;22;20188;-73
2022/10/04 18:15:36;;;;;;;10.53;5.83;;;;;14.40;101415.00;;;;13043731;22;20174;-74
2022/10/04 18:20:53;;;;;;;8.83;5.70;;;;;14.40;101398.00;;;;13064991;22;20179;-73
2022/10/04 18:26:01;;;;;;;8.93;5.93;;;;;14.30;101386.00;;;;13090243;22;20190;-73
2022/10/04 18:31:21;;;;;;;12.07;6.00;;;;;14.20;101364.00;;;;13017486;22;20246;-73
2022/10/04 18:36:30;;;;;;;9.47;6.23;;;;;14.20;101365.00;;;;13017575;22;20802;-74
2022/10/04 18:46:56;;;;;;;7.17;5.70;;;;;14.10;101363.00;;;;13117952;22;20238;-74
2022/10/04 18:52:05;;;;;;;8.33;6.00;;;;;14.20;101361.00;;;;13038750;22;20681;-73
2022/10/04 18:57:23;;;;;;;10.93;5.67;;;;;14.30;101363.00;;;;13115352;22;20660;-73
2022/10/04 19:02:36;;;;;;;8.03;5.33;;;;;14.50;101372.00;;;;13042327;22;20520;-73
2022/10/04 19:08:04;;;;;;;11.23;6.22;;;;;14.60;101375.00;;;;13039021;22;20164;-74
2022/10/04 19:13:08;;;;;;;8.10;5.93;;;;;14.60;101384.00;;;;13118170;22;20724;-73
2022/10/04 19:18:39;;;;;;;14.13;7.23;;;;;14.60;101376.00;;;;13067205;22;20183;-74
2022/10/04 19:24:15;;;;;;;7.28;5.75;;;;;14.70;101381.00;;;;13043112;22;20195;-73
2022/10/04 19:29:38;;;;;;;9.77;6.77;;;;;14.70;101374.00;;;;13039085;22;20160;-73
2022/10/04 19:35:00;;;;;;;10.48;6.20;;;;;14.70;101369.00;;;;13075415;22;20247;-73
2022/10/04 19:40:15;;;;;;;10.43;6.13;;;;;14.70;101364.00;;;;13090409;22;20416;-74
2022/10/04 19:45:32;;;;;;;11.10;6.13;;;;;14.70;101366.00;;;;13042825;22;20510;-73
2022/10/04 19:50:44;;;;;;;11.00;5.80;;;;;14.70;101358.00;;;;13090164;22;20165;-74
2022/10/04 19:55:59;;;;;;;10.03;5.53;;;;;14.70;101351.00;;;;13063981;22;20159;-73
2022/10/04 20:01:00;;;;;;;7.77;5.60;;;;;14.70;101352.00;;;;13040494;22;20953;-73
2022/10/04 20:06:02;;;;;;;9.10;5.43;;;;;14.80;101344.00;;;;13041335;22;20182;-74
2022/10/04 20:11:47;;;;;;;11.15;6.50;;;;;14.70;101349.00;;;;13043426;22;20907;-74
2022/10/04 20:16:48;;;;;;;6.93;5.57;;;;;14.70;101356.00;;;;13041520;22;20177;-73
2022/10/04 20:21:50;;;;;;;11.13;5.80;;;;;14.80;101358.00;;;;13062479;22;20179;-73
2022/10/04 20:26:52;;;;;;;9.80;5.78;;;;;14.90;101341.00;;;;13064347;22;20685;-74
2022/10/04 20:31:55;;;;;;;12.03;5.27;;;;;14.80;101341.00;;;;13067807;22;20221;-73
2022/10/04 20:36:56;;;;;;;8.77;5.07;;;;;14.80;101348.00;;;;13016076;22;20206;-73
2022/10/04 20:42:24;;;;;;;6.55;5.00;;;;;14.80;101349.00;;;;13063274;22;20235;-73
2022/10/04 20:47:34;;;;;;;11.13;4.93;;;;;14.90;101347.00;;;;13039410;22;20175;-73
2022/10/04 20:52:36;;;;;;;7.15;5.20;;;;;15.00;101347.00;;;;13087393;22;20159;-73
2022/10/04 20:57:38;;;;;;;6.63;4.87;;;;;15.00;101348.00;;;;13034331;22;20163;-73
2022/10/04 21:02:41;;;;;;;8.43;4.93;;;;;15.00;101341.00;;;;13057642;22;20191;-73
2022/10/04 21:07:42;;;;;;;6.00;5.40;;;;;15.00;101338.00;;;;13087231;22;20234;-73
2022/10/04 21:12:43;;;;;;;8.60;5.45;;;;;15.00;101339.00;;;;13086329;22;20186;-73
2022/10/04 21:18:09;;;;;;;7.85;4.80;;;;;15.00;101340.00;;;;13084772;22;20171;-73
2022/10/04 21:23:32;;;;;;;11.57;5.47;;;;;15.00;101332.00;;;;13040814;22;20693;-73
2022/10/04 21:28:33;;;;;;;9.75;5.13;;;;;15.00;101345.00;;;;13087481;22;20222;-73
2022/10/04 21:33:35;;;;;;;6.60;5.13;;;;;15.00;101348.00;;;;13086881;22;20163;-73
2022/10/04 21:38:37;;;;;;;10.85;5.15;;;;;14.90;101346.00;;;;13086836;22;20237;-73
2022/10/04 21:43:38;;;;;;;6.35;4.93;;;;;14.90;101336.00;;;;13058399;22;20179;-73
2022/10/04 21:48:39;;;;;;;14.10;6.10;;;;;14.90;101332.00;;;;13083912;22;20166;-73
2022/10/04 21:53:40;;;;;;;8.13;5.32;;;;;14.90;101332.00;;;;13084588;22;20564;-73
2022/10/04 21:58:41;;;;;;;6.03;4.95;;;;;14.90;101337.00;;;;13062937;22;20702;-73
2022/10/04 22:03:42;;;;;;;6.97;4.78;;;;;14.90;101340.00;;;;13084797;22;20195;-73
2022/10/04 22:08:44;;;;;;;6.88;5.30;;;;;14.90;101340.00;;;;13062717;22;20167;-73
2022/10/04 22:13:46;;;;;;;7.47;5.25;;;;;14.90;101337.00;;;;13064953;22;20248;-73
2022/10/04 22:18:48;;;;;;;8.27;5.37;;;;;14.90;101341.00;;;;13087022;22;20164;-73
2022/10/04 22:23:49;;;;;;;5.57;4.83;;;;;14.90;101331.00;;;;13014225;22;20287;-73
2022/10/04 22:28:53;;;;;;;5.68;5.10;;;;;14.80;101336.00;;;;13060973;22;20207;-73
2022/10/04 22:33:55;;;;;;;9.48;5.63;;;;;14.80;101338.00;;;;13061137;22;20163;-73
2022/10/04 22:38:59;;;;;;;7.22;5.30;;;;;14.80;101330.00;;;;13086347;22;20380;-74
2022/10/04 22:44:18;;;;;;;7.40;5.18;;;;;14.80;101327.00;;;;13117646;22;20191;-73
2022/10/04 22:49:39;;;;;;;9.43;5.70;;;;;14.80;101311.00;;;;13016151;22;20542;-73
2022/10/04 22:54:44;;;;;;;7.77;5.20;;;;;14.80;101302.00;;;;13064142;22;20558;-73
2022/10/04 22:59:47;;;;;;;7.60;5.55;;;;;14.80;101298.00;;;;13040728;22;20739;-73
2022/10/04 23:04:51;;;;;;;8.02;5.20;;;;;14.90;101305.00;;;;13016003;22;20192;-73
2022/10/04 23:09:53;;;;;;;8.93;5.55;;;;;14.90;101288.00;;;;13064484;22;20494;-74
2022/10/04 23:14:54;;;;;;;6.90;4.63;;;;;14.90;101277.00;;;;13116649;22;20212;-73
2022/10/04 23:19:57;;;;;;;5.68;4.88;;;;;14.90;101292.00;;;;13116305;22;20164;-73
2022/10/04 23:24:59;;;;;;;7.63;4.90;;;;;14.90;101287.00;;;;13063300;22;20179;-74
2022/10/04 23:30:04;;;;;;;6.77;4.50;;;;;14.90;101288.00;;;;13088160;22;20159;-73
2022/10/04 23:35:16;;;;;;;7.03;4.45;;;;;14.90;101285.00;;;;13041800;22;20211;-73
2022/10/04 23:40:19;;;;;;;7.65;5.53;;;;;14.90;101286.00;;;;13064434;22;20246;-73
2022/10/04 23:45:23;;;;;;;7.70;4.53;;;;;14.80;101285.00;;;;13041993;22;20286;-74
2022/10/04 23:50:30;;;;;;;5.53;3.95;;;;;14.80;101291.00;;;;13040505;22;20251;-73
2022/10/04 23:55:37;;;;;;;7.40;4.78;;;;;14.80;101275.00;;;;13066018;22;20170;-73
